Time;durP1;ratioP1;P1;durP2;ratioP2;P2;SDS_P1;SDS_P2;PMS_P1;PMS_P2;Temp;Humidity;BMP_temperature;BMP_pressure;BME280_temperature;BME280_humidity;BME280_pressure;Samples;Min_cycle;Max_cycle;Signal;HPM_P1;HPM_P2
2023/10/15 00:02:13;;;;;;;2.03;0.60;;;9.50;79.40;;;;;;9174698;19;20105;-73
2023/10/15 00:05:28;;;;;;;3.72;0.55;;;9.50;79.50;;;;;;9170484;19;20376;-73
2023/10/15 00:08:34;;;;;;;1.60;0.43;;;9.50;79.50;;;;;;9172054;19;20015;-74
2023/10/15 00:11:43;;;;;;;1.08;0.47;;;9.50;79.40;;;;;;9172567;19;20054;-73
2023/10/15 00:14:48;;;;;;;1.48;0.40;;;9.50;79.40;;;;;;9170347;19;20144;-73
2023/10/15 00:18:00;;;;;;;0.90;0.30;;;9.50;79.30;;;;;;9169772;19;20513;-73
2023/10/15 00:21:11;;;;;;;1.98;1.17;;;9.50;79.40;;;;;;9168973;19;20021;-73
2023/10/15 00:24:19;;;;;;;3.20;0.70;;;9.50;79.40;;;;;;9168499;19;20014;-73
2023/10/15 00:27:24;;;;;;;2.05;0.63;;;9.40;79.40;;;;;;9166905;19;20025;-73
2023/10/15 00:30:34;;;;;;;7.10;0.70;;;9.40;79.40;;;;;;9165763;19;20025;-74
2023/10/15 00:33:44;;;;;;;6.38;0.98;;;9.40;79.40;;;;;;9171219;19;20011;-73
2023/10/15 00:36:55;;;;;;;2.53;0.98;;;9.40;79.50;;;;;;9169541;19;20570;-73
2023/10/15 00:40:01;;;;;;;1.27;0.73;;;9.30;79.50;;;;;;9171714;19;20018;-74
2023/10/15 00:43:09;;;;;;;2.42;0.52;;;9.30;79.50;;;;;;9166460;19;20019;-73
2023/10/15 00:46:17;;;;;;;3.03;0.80;;;9.30;79.50;;;;;;9166192;19;20034;-73
2023/10/15 00:49:28;;;;;;;3.05;0.80;;;9.30;79.70;;;;;;9166591;19;20627;-73
2023/10/15 00:52:37;;;;;;;3.20;0.57;;;9.30;79.80;;;;;;9169653;19;20780;-72
2023/10/15 00:55:45;;;;;;;3.67;0.90;;;9.30;79.80;;;;;;9168001;19;20023;-73
2023/10/15 01:02:22;;;;;;;4.43;0.88;;;9.30;79.90;;;;;;9170418;19;20089;-73
2023/10/15 01:05:33;;;;;;;2.97;1.20;;;9.30;80.00;;;;;;9169982;19;20052;-72
2023/10/15 01:08:41;;;;;;;2.10;0.90;;;9.30;80.00;;;;;;9170735;19;20694;-73
2023/10/15 01:11:51;;;;;;;7.25;0.80;;;9.30;80.00;;;;;;9168063;19;20393;-72
2023/10/15 01:14:59;;;;;;;3.00;0.77;;;9.30;80.10;;;;;;9169503;19;20323;-73
2023/10/15 01:18:07;;;;;;;4.25;0.80;;;9.30;80.20;;;;;;9169232;19;20014;-72
2023/10/15 01:21:17;;;;;;;3.55;0.85;;;9.30;80.30;;;;;;9169550;19;20013;-72
2023/10/15 01:24:25;;;;;;;1.80;0.80;;;9.30;80.30;;;;;;9166796;19;20022;-73
2023/10/15 01:27:36;;;;;;;2.35;0.77;;;9.30;80.30;;;;;;9166556;19;20032;-73
2023/10/15 01:30:42;;;;;;;1.15;0.70;;;9.40;80.40;;;;;;9163135;19;20078;-73
2023/10/15 01:33:50;;;;;;;4.70;0.80;;;9.40;80.50;;;;;;9167491;19;20067;-74
2023/10/15 01:36:57;;;;;;;1.42;0.63;;;9.40;80.60;;;;;;9166708;19;20407;-73
2023/10/15 01:40:24;;;;;;;3.08;0.80;;;9.40;80.60;;;;;;9166897;19;20022;-73
2023/10/15 01:43:35;;;;;;;3.35;1.27;;;9.40;80.60;;;;;;9165233;19;20605;-73
2023/10/15 01:46:47;;;;;;;1.87;0.80;;;9.40;80.60;;;;;;9166878;19;20015;-73
2023/10/15 01:49:56;;;;;;;3.30;0.75;;;9.40;81.10;;;;;;9166051;19;20014;-73
2023/10/15 01:53:04;;;;;;;6.05;1.05;;;9.40;80.60;;;;;;9167177;19;20021;-73
2023/10/15 01:56:16;;;;;;;1.80;0.70;;;9.40;80.70;;;;;;9164825;19;20022;-74
2023/10/15 01:59:27;;;;;;;3.15;0.85;;;9.50;80.80;;;;;;9160990;19;20515;-72
2023/10/15 02:02:32;;;;;;;3.40;0.80;;;9.50;80.90;;;;;;9164556;19;20621;-75
2023/10/15 02:05:44;;;;;;;5.32;1.15;;;9.50;80.90;;;;;;9166976;19;20017;-74
2023/10/15 02:08:51;;;;;;;0.80;0.50;;;9.50;80.90;;;;;;9167602;19;20056;-75
2023/10/15 02:11:59;;;;;;;2.90;0.93;;;9.50;80.90;;;;;;9168641;19;20022;-73
2023/10/15 02:15:14;;;;;;;1.38;0.60;;;9.50;80.90;;;;;;9169596;19;20482;-73
2023/10/15 02:18:22;;;;;;;2.88;0.75;;;9.50;80.90;;;;;;9167543;19;20014;-75
2023/10/15 02:21:31;;;;;;;1.73;0.63;;;9.50;80.90;;;;;;9166512;19;20019;-73
2023/10/15 02:24:46;;;;;;;1.77;0.82;;;9.50;80.90;;;;;;9165268;19;20011;-72
2023/10/15 02:27:52;;;;;;;3.03;1.00;;;9.50;80.90;;;;;;9166313;19;20022;-73
2023/10/15 02:31:14;;;;;;;1.40;0.50;;;9.50;80.90;;;;;;9163602;19;20018;-72
2023/10/15 02:34:27;;;;;;;1.42;0.52;;;9.50;81.00;;;;;;9164706;19;20049;-72
2023/10/15 02:37:40;;;;;;;4.90;0.85;;;9.50;81.00;;;;;;9167310;19;20006;-73
2023/10/15 02:44:12;;;;;;;2.33;0.70;;;9.50;81.10;;;;;;9159571;19;21015;-73
2023/10/15 02:47:28;;;;;;;3.83;0.68;;;9.40;81.00;;;;;;9161771;19;20445;-73
2023/10/15 02:50:36;;;;;;;2.42;0.70;;;9.40;80.90;;;;;;9161674;19;20021;-72
2023/10/15 02:53:50;;;;;;;1.42;0.40;;;9.40;81.00;;;;;;9161808;19;20068;-72
2023/10/15 02:56:59;;;;;;;0.93;0.45;;;9.40;80.90;;;;;;9159759;19;20010;-73
2023/10/15 03:00:12;;;;;;;2.47;0.60;;;9.40;80.90;;;;;;9166188;19;20701;-73
2023/10/15 03:03:32;;;;;;;3.22;0.90;;;9.30;80.90;;;;;;9162973;19;20370;-75
2023/10/15 03:06:41;;;;;;;3.33;0.73;;;9.30;80.90;;;;;;9163214;19;20022;-73
2023/10/15 03:09:56;;;;;;;1.50;0.70;;;9.20;80.90;;;;;;9164487;19;20359;-73
2023/10/15 03:13:03;;;;;;;4.95;0.90;;;9.20;80.90;;;;;;9172141;19;20078;-74
2023/10/15 03:16:10;;;;;;;1.73;0.43;;;9.20;81.00;;;;;;9172487;19;20036;-72
2023/10/15 03:19:23;;;;;;;1.05;0.52;;;9.20;81.00;;;;;;9172883;19;20022;-75
2023/10/15 03:22:37;;;;;;;2.20;0.60;;;9.20;81.00;;;;;;9174809;19;20346;-75
2023/10/15 03:25:43;;;;;;;1.33;0.70;;;9.10;81.00;;;;;;9175486;19;20389;-75
2023/10/15 03:28:58;;;;;;;5.32;0.80;;;9.20;81.10;;;;;;9167382;19;20499;-73
2023/10/15 03:32:09;;;;;;;1.88;0.70;;;9.20;81.20;;;;;;9174459;19;20022;-74
2023/10/15 03:35:30;;;;;;;1.80;0.65;;;9.10;81.20;;;;;;9171685;19;20017;-74
2023/10/15 03:38:36;;;;;;;3.08;0.65;;;9.10;81.20;;;;;;9172243;19;20025;-74
2023/10/15 03:41:49;;;;;;;3.67;0.88;;;9.10;81.20;;;;;;9172634;19;20011;-74
2023/10/15 03:44:59;;;;;;;2.50;0.68;;;9.10;81.30;;;;;;9168500;19;20018;-74
2023/10/15 03:48:09;;;;;;;2.10;0.63;;;9.10;81.40;;;;;;9170380;19;20329;-74
2023/10/15 03:51:20;;;;;;;2.80;0.60;;;9.10;81.50;;;;;;9170383;19;20022;-74
2023/10/15 03:54:33;;;;;;;1.52;0.55;;;9.20;81.50;;;;;;9172251;19;20017;-74
2023/10/15 03:57:41;;;;;;;;;;;9.20;81.50;;;;;;9172462;19;20019;-74
2023/10/15 04:00:55;;;;;;;1.42;0.60;;;9.10;81.40;;;;;;9169487;19;19921;-75
2023/10/15 04:04:03;;;;;;;2.42;1.08;;;9.20;81.40;;;;;;9171518;19;20026;-73
2023/10/15 04:07:19;;;;;;;4.38;0.82;;;9.10;81.50;;;;;;9168224;19;20025;-73
2023/10/15 04:10:28;;;;;;;1.45;0.57;;;9.20;81.50;;;;;;9169629;19;20018;-74
2023/10/15 04:13:35;;;;;;;1.67;0.63;;;9.10;81.40;;;;;;9171503;19;20530;-73
2023/10/15 04:16:42;;;;;;;3.63;0.75;;;9.10;81.40;;;;;;9171261;19;20018;-73
2023/10/15 04:19:49;;;;;;;0.98;0.35;;;9.10;81.40;;;;;;9172197;19;20021;-73
2023/10/15 04:22:57;;;;;;;2.58;0.60;;;9.10;81.50;;;;;;9169798;19;20780;-73
2023/10/15 04:26:12;;;;;;;3.60;0.77;;;9.00;81.60;;;;;;9169403;19;20421;-73
2023/10/15 04:29:21;;;;;;;2.15;0.55;;;9.00;81.60;;;;;;9163527;19;20021;-73
2023/10/15 04:32:45;;;;;;;5.25;0.73;;;9.00;81.50;;;;;;9170431;19;20643;-75
2023/10/15 04:35:52;;;;;;;1.58;0.90;;;9.00;81.70;;;;;;9169768;19;20022;-73
2023/10/15 04:39:11;;;;;;;5.50;0.90;;;9.00;81.70;;;;;;9172811;19;20006;-75
2023/10/15 04:42:21;;;;;;;1.45;0.65;;;9.00;81.80;;;;;;9168142;19;20022;-74
2023/10/15 04:45:35;;;;;;;2.38;0.50;;;9.00;81.80;;;;;;9168775;19;20014;-74
2023/10/15 04:48:44;;;;;;;2.75;0.63;;;9.00;81.80;;;;;;9167375;19;20505;-73
2023/10/15 04:51:53;;;;;;;3.80;0.73;;;9.00;81.80;;;;;;9170522;19;20499;-72
2023/10/15 04:55:01;;;;;;;2.58;0.88;;;9.00;81.80;;;;;;9168322;19;20030;-73
2023/10/15 04:58:08;;;;;;;4.68;0.88;;;9.00;81.90;;;;;;9170018;19;20495;-72
2023/10/15 05:01:14;;;;;;;3.08;1.33;;;9.00;81.90;;;;;;9168130;19;20014;-74
2023/10/15 05:04:22;;;;;;;4.43;0.77;;;9.00;81.80;;;;;;9169236;19;20500;-74
2023/10/15 05:07:28;;;;;;;4.85;1.42;;;9.00;81.90;;;;;;9165937;19;20507;-75
2023/10/15 05:10:38;;;;;;;2.03;0.57;;;9.00;81.90;;;;;;9168226;19;20019;-73
2023/10/15 05:13:44;;;;;;;2.17;0.80;;;9.00;82.00;;;;;;9165791;19;20025;-74
2023/10/15 05:16:52;;;;;;;4.72;1.00;;;9.00;81.90;;;;;;9168063;19;20053;-74
2023/10/15 05:19:58;;;;;;;6.07;1.08;;;9.00;81.90;;;;;;9169710;19;20006;-75
2023/10/15 05:23:06;;;;;;;3.47;0.85;;;9.00;81.90;;;;;;9167898;19;20107;-74
2023/10/15 05:26:16;;;;;;;4.32;0.85;;;9.00;82.00;;;;;;9170181;19;20030;-73
2023/10/15 05:29:23;;;;;;;3.42;0.88;;;9.00;82.00;;;;;;9164037;19;20850;-74
2023/10/15 05:32:29;;;;;;;3.55;0.70;;;9.00;82.00;;;;;;9168732;19;20010;-73
2023/10/15 05:35:37;;;;;;;1.83;0.35;;;9.00;82.10;;;;;;9168325;19;20338;-73
2023/10/15 05:38:43;;;;;;;3.00;0.80;;;9.00;82.10;;;;;;9169898;19;20094;-73
2023/10/15 05:41:54;;;;;;;3.17;0.55;;;9.00;82.10;;;;;;9167869;19;20018;-72
2023/10/15 05:45:00;;;;;;;3.35;0.70;;;9.00;82.20;;;;;;9164451;19;20387;-73
2023/10/15 05:48:09;;;;;;;3.72;0.80;;;9.00;82.10;;;;;;9166280;19;20491;-75
2023/10/15 05:51:14;;;;;;;6.63;0.98;;;9.00;82.20;;;;;;9166890;19;20044;-73
2023/10/15 05:54:23;;;;;;;1.10;0.55;;;9.00;82.20;;;;;;9165565;19;20487;-73
2023/10/15 05:57:31;;;;;;;7.10;0.80;;;9.10;82.20;;;;;;9166058;19;20061;-72
2023/10/15 06:00:39;;;;;;;5.55;0.90;;;9.10;82.30;;;;;;9168945;19;20060;-72
2023/10/15 06:03:45;;;;;;;2.80;0.60;;;9.10;82.20;;;;;;9164536;19;20014;-74
2023/10/15 06:06:53;;;;;;;2.50;0.60;;;9.10;82.20;;;;;;9166363;19;20018;-73
2023/10/15 06:09:58;;;;;;;3.58;0.70;;;9.10;82.20;;;;;;9166221;19;20022;-73
2023/10/15 06:13:09;;;;;;;0.73;0.60;;;9.00;82.30;;;;;;9167629;19;20426;-71
2023/10/15 06:16:18;;;;;;;2.20;0.80;;;9.00;82.20;;;;;;9166792;19;20022;-73
2023/10/15 06:19:25;;;;;;;8.80;1.20;;;9.00;82.10;;;;;;9166902;19;20357;-72
2023/10/15 06:22:31;;;;;;;5.43;1.40;;;9.00;82.20;;;;;;9165045;19;21425;-70
2023/10/15 06:25:38;;;;;;;2.78;0.88;;;9.00;82.30;;;;;;9164067;19;20014;-72
2023/10/15 06:28:46;;;;;;;2.88;0.80;;;9.00;82.20;;;;;;9162017;19;20035;-72
2023/10/15 06:31:54;;;;;;;2.58;0.60;;;9.00;82.30;;;;;;9163663;19;20015;-72
2023/10/15 06:34:59;;;;;;;4.00;0.80;;;9.00;82.40;;;;;;9166913;19;20086;-72
2023/10/15 06:38:08;;;;;;;3.03;0.68;;;9.00;82.40;;;;;;9166521;19;20015;-73
2023/10/15 06:41:13;;;;;;;4.10;0.73;;;9.00;82.40;;;;;;9163754;19;20034;-72
2023/10/15 06:44:24;;;;;;;3.22;0.88;;;9.00;82.50;;;;;;9163049;19;20353;-72
2023/10/15 06:47:29;;;;;;;2.80;0.88;;;9.00;82.50;;;;;;9162911;19;20026;-72
2023/10/15 06:50:37;;;;;;;1.83;0.75;;;9.00;82.50;;;;;;9163290;19;20011;-73
2023/10/15 06:53:42;;;;;;;2.88;0.75;;;9.00;82.50;;;;;;9166226;19;20022;-73
2023/10/15 06:56:50;;;;;;;1.08;0.70;;;9.00;82.50;;;;;;9166627;19;20019;-72
2023/10/15 06:59:58;;;;;;;3.97;1.52;;;9.10;82.60;;;;;;9165805;19;20034;-75
2023/10/15 07:03:06;;;;;;;3.88;1.50;;;9.10;82.70;;;;;;9166877;19;20021;-74
2023/10/15 07:06:12;;;;;;;2.20;1.33;;;9.10;82.70;;;;;;9166034;19;20393;-73
2023/10/15 07:09:19;;;;;;;4.63;1.08;;;9.10;82.70;;;;;;9164184;19;20379;-72
2023/10/15 07:12:25;;;;;;;2.35;1.05;;;9.10;82.80;;;;;;9168063;19;20015;-74
2023/10/15 07:15:36;;;;;;;3.58;1.20;;;9.10;82.70;;;;;;9168579;19;20024;-73
2023/10/15 07:18:42;;;;;;;3.65;1.05;;;9.10;82.80;;;;;;9164496;19;20021;-72
2023/10/15 07:21:50;;;;;;;4.65;1.20;;;9.20;82.70;;;;;;9168186;19;20358;-73
2023/10/15 07:24:55;;;;;;;3.97;1.10;;;9.20;82.80;;;;;;9167517;19;20672;-73
2023/10/15 07:28:04;;;;;;;4.20;0.90;;;9.20;82.80;;;;;;9166989;19;20014;-72
2023/10/15 07:31:15;;;;;;;0.70;0.50;;;9.20;82.80;;;;;;9164447;19;20011;-72
2023/10/15 07:34:22;;;;;;;1.30;0.60;;;9.20;82.80;;;;;;9166803;19;20022;-72
2023/10/15 07:37:28;;;;;;;3.25;0.55;;;9.20;82.80;;;;;;9164876;19;20670;-74
2023/10/15 07:40:36;;;;;;;4.60;0.80;;;9.30;82.80;;;;;;9165467;19;20033;-73
2023/10/15 07:43:42;;;;;;;4.10;1.13;;;9.20;82.80;;;;;;9166463;19;20573;-72
2023/10/15 07:46:52;;;;;;;1.80;0.65;;;9.30;82.90;;;;;;9164438;19;20014;-72
2023/10/15 07:49:59;;;;;;;0.85;0.50;;;9.40;83.00;;;;;;9164814;19;20048;-72
2023/10/15 07:53:07;;;;;;;7.43;0.80;;;9.40;83.00;;;;;;9164236;19;20029;-71
2023/10/15 07:56:14;;;;;;;8.80;0.93;;;9.50;83.00;;;;;;9164763;19;20034;-74
2023/10/15 07:59:22;;;;;;;2.97;0.63;;;9.50;82.90;;;;;;9168627;19;20017;-71
2023/10/15 08:02:30;;;;;;;2.95;0.93;;;9.50;82.80;;;;;;9172054;19;20026;-72
2023/10/15 08:05:39;;;;;;;10.82;3.90;;;9.60;82.90;;;;;;9173913;19;20010;-72
2023/10/15 08:08:45;;;;;;;9.30;0.98;;;9.60;83.00;;;;;;9170666;19;20026;-73
2023/10/15 08:11:53;;;;;;;2.25;0.65;;;9.70;83.10;;;;;;9170634;19;20018;-73
2023/10/15 08:14:58;;;;;;;3.60;0.80;;;9.80;83.10;;;;;;9170903;19;20022;-72
2023/10/15 08:18:09;;;;;;;4.25;0.88;;;9.90;83.20;;;;;;9169944;19;20018;-72
2023/10/15 08:21:14;;;;;;;7.35;0.88;;;10.00;83.30;;;;;;9171365;19;20014;-72
2023/10/15 08:24:22;;;;;;;6.38;1.08;;;10.10;83.20;;;;;;9169241;19;20011;-72
2023/10/15 08:27:28;;;;;;;2.85;0.95;;;10.20;83.20;;;;;;9166928;19;20019;-75
2023/10/15 08:30:36;;;;;;;6.28;1.02;;;10.30;83.20;;;;;;9162848;19;20467;-72
2023/10/15 08:33:44;;;;;;;3.25;1.10;;;10.30;83.10;;;;;;9169742;19;20123;-72
2023/10/15 08:36:57;;;;;;;1.52;0.70;;;10.40;83.60;;;;;;9170020;19;20094;-72
2023/10/15 08:40:04;;;;;;;3.13;0.80;;;10.40;82.70;;;;;;9171620;19;20542;-73
2023/10/15 08:43:14;;;;;;;6.22;1.95;;;10.50;82.60;;;;;;9173753;19;20027;-72
2023/10/15 08:46:23;;;;;;;2.42;0.88;;;10.50;82.60;;;;;;9173246;19;20063;-71
2023/10/15 08:49:37;;;;;;;3.45;0.75;;;10.50;82.40;;;;;;9171927;19;20007;-73
2023/10/15 08:52:43;;;;;;;5.78;1.70;;;10.60;82.40;;;;;;9172474;19;20033;-72
2023/10/15 08:55:57;;;;;;;6.88;0.85;;;10.50;82.30;;;;;;9172930;19;20015;-72
2023/10/15 08:59:04;;;;;;;3.72;0.63;;;10.60;82.40;;;;;;9165250;19;20015;-72
2023/10/15 09:02:13;;;;;;;3.28;0.57;;;10.60;82.30;;;;;;9164717;19;20381;-73
2023/10/15 09:05:22;;;;;;;2.20;0.63;;;10.70;82.40;;;;;;9166410;19;20025;-73
2023/10/15 09:08:29;;;;;;;3.80;0.75;;;10.70;82.30;;;;;;9162854;19;20365;-73
2023/10/15 09:11:35;;;;;;;1.05;0.70;;;10.80;82.30;;;;;;9164379;19;20026;-73
2023/10/15 09:14:44;;;;;;;5.68;0.98;;;10.80;82.40;;;;;;9164512;19;20769;-72
2023/10/15 09:17:54;;;;;;;3.55;0.65;;;10.80;82.30;;;;;;9158563;19;20693;-72
2023/10/15 09:21:06;;;;;;;3.22;0.65;;;10.90;82.40;;;;;;9163547;19;20030;-71
2023/10/15 09:24:13;;;;;;;4.45;0.93;;;11.00;82.20;;;;;;9162946;19;20052;-73
2023/10/15 09:27:22;;;;;;;5.38;1.08;;;11.00;82.20;;;;;;9164294;19;20425;-72
2023/10/15 09:30:30;;;;;;;4.85;0.68;;;11.10;82.20;;;;;;9159257;19;20018;-72
2023/10/15 09:33:39;;;;;;;5.45;1.02;;;11.10;82.00;;;;;;9165345;19;20017;-73
2023/10/15 09:36:46;;;;;;;1.65;0.43;;;11.10;81.90;;;;;;9165568;19;20367;-72
2023/10/15 09:39:56;;;;;;;2.20;0.88;;;11.20;81.90;;;;;;9164928;19;20014;-72
2023/10/15 09:43:02;;;;;;;3.80;0.77;;;11.20;81.90;;;;;;9167228;19;20901;-72
2023/10/15 09:46:09;;;;;;;4.88;0.85;;;11.30;81.90;;;;;;9168956;19;20014;-72
2023/10/15 09:49:15;;;;;;;2.97;0.70;;;11.30;81.80;;;;;;9168664;19;20022;-72
2023/10/15 09:52:28;;;;;;;3.45;0.60;;;11.40;81.80;;;;;;9165524;19;20023;-72
2023/10/15 09:55:34;;;;;;;3.15;0.60;;;11.60;81.80;;;;;;9167304;19;20364;-72
2023/10/15 09:58:42;;;;;;;1.63;0.60;;;11.60;81.70;;;;;;9167046;19;20019;-72
2023/10/15 10:01:53;;;;;;;5.32;1.10;;;11.70;81.70;;;;;;9168163;19;20484;-74
2023/10/15 10:05:17;;;;;;;2.97;0.47;;;11.90;81.70;;;;;;9168312;19;20006;-74
2023/10/15 10:08:36;;;;;;;0.50;0.50;;;12.00;81.60;;;;;;9167259;19;20022;-73
2023/10/15 10:11:54;;;;;;;7.00;0.60;;;12.10;81.40;;;;;;9165781;19;20020;-74
2023/10/15 10:15:28;;;;;;;4.78;0.93;;;12.20;81.30;;;;;;9168495;19;20925;-73
2023/10/15 10:18:37;;;;;;;4.47;1.15;;;12.40;81.20;;;;;;9165039;19;20038;-72
2023/10/15 10:21:47;;;;;;;7.82;1.02;;;12.50;81.20;;;;;;9164963;19;20014;-72
2023/10/15 10:24:58;;;;;;;1.75;0.47;;;12.60;80.90;;;;;;9164562;19;20011;-71
2023/10/15 10:28:13;;;;;;;2.03;0.63;;;12.70;80.70;;;;;;9164740;19;20432;-71
2023/10/15 10:31:25;;;;;;;2.88;0.55;;;12.80;80.60;;;;;;9165963;19;20013;-72
2023/10/15 10:34:32;;;;;;;5.53;1.00;;;12.80;80.60;;;;;;9166092;19;20019;-72
2023/10/15 10:38:03;;;;;;;5.38;0.90;;;13.00;80.50;;;;;;9165019;19;20025;-74
2023/10/15 10:41:16;;;;;;;2.00;0.73;;;13.10;80.30;;;;;;9165762;19;20023;-75
2023/10/15 10:44:40;;;;;;;1.33;0.45;;;13.20;80.20;;;;;;9169152;19;20348;-74
2023/10/15 10:47:50;;;;;;;3.55;1.00;;;13.30;80.00;;;;;;9168913;19;20656;-73
2023/10/15 10:51:19;;;;;;;3.15;0.82;;;13.50;79.90;;;;;;9170257;19;20060;-73
2023/10/15 10:54:28;;;;;;;4.80;0.70;;;13.60;79.70;;;;;;9168643;19;20498;-73
2023/10/15 10:57:45;;;;;;;4.53;0.80;;;13.70;79.60;;;;;;9166334;19;20021;-73
2023/10/15 11:00:50;;;;;;;2.92;0.70;;;13.80;79.40;;;;;;9164809;19;20019;-74
2023/10/15 11:03:59;;;;;;;4.90;0.85;;;13.80;79.40;;;;;;9165411;19;20695;-73
2023/10/15 11:07:05;;;;;;;2.90;0.52;;;13.90;79.20;;;;;;9164739;19;20038;-74
2023/10/15 11:10:16;;;;;;;3.97;0.75;;;14.00;79.00;;;;;;9162632;19;20482;-73
2023/10/15 11:13:25;;;;;;;2.65;1.10;;;14.10;79.00;;;;;;9160026;19;20070;-74
2023/10/15 11:16:34;;;;;;;3.40;0.68;;;14.20;78.80;;;;;;9162100;19;20022;-75
2023/10/15 11:19:40;;;;;;;5.40;1.52;;;14.20;78.70;;;;;;9162090;19;20014;-74
2023/10/15 11:22:51;;;;;;;2.63;0.60;;;14.40;78.50;;;;;;9164685;19;20021;-75
2023/10/15 11:25:57;;;;;;;3.80;0.65;;;14.40;78.30;;;;;;9164370;19;20101;-73
2023/10/15 11:29:07;;;;;;;9.57;0.95;;;14.50;78.00;;;;;;9160523;19;20018;-73
2023/10/15 11:32:13;;;;;;;4.68;0.77;;;14.60;77.80;;;;;;9162224;19;20019;-74
2023/10/15 11:35:21;;;;;;;7.72;0.95;;;14.60;77.80;;;;;;9170849;19;20021;-73
2023/10/15 11:38:35;;;;;;;4.32;1.05;;;14.70;77.60;;;;;;9169727;19;20018;-73
2023/10/15 11:41:43;;;;;;;4.50;0.82;;;14.70;77.20;;;;;;9172594;19;20361;-72
2023/10/15 11:44:55;;;;;;;4.30;1.02;;;14.80;77.30;;;;;;9169681;19;20030;-75
2023/10/15 11:48:04;;;;;;;4.88;0.82;;;14.80;77.10;;;;;;9170493;19;20224;-72
2023/10/15 11:51:09;;;;;;;6.15;1.00;;;14.80;77.00;;;;;;9171730;19;20010;-72
2023/10/15 11:54:19;;;;;;;6.22;1.05;;;14.80;76.80;;;;;;9169100;19;20265;-72
2023/10/15 11:57:25;;;;;;;4.88;1.20;;;14.90;76.70;;;;;;9170675;19;20064;-71
2023/10/15 12:00:35;;;;;;;6.13;1.70;;;14.90;76.50;;;;;;9171383;19;20021;-73
2023/10/15 12:03:45;;;;;;;8.70;1.23;;;14.90;76.30;;;;;;9173069;19;20085;-73
2023/10/15 12:06:54;;;;;;;3.30;0.85;;;14.90;76.20;;;;;;9172717;19;20013;-73
2023/10/15 12:10:00;;;;;;;12.70;1.30;;;14.90;76.10;;;;;;9172602;19;20105;-72
2023/10/15 12:13:08;;;;;;;5.30;1.10;;;14.90;76.00;;;;;;9170208;19;20002;-73
2023/10/15 12:16:16;;;;;;;7.18;0.80;;;14.80;75.70;;;;;;9170339;19;20380;-74
2023/10/15 12:19:25;;;;;;;4.78;1.00;;;15.00;75.70;;;;;;9173055;19;20019;-73
2023/10/15 12:22:31;;;;;;;4.82;0.82;;;14.80;75.70;;;;;;9172803;19;20030;-71
2023/10/15 12:25:39;;;;;;;9.30;1.38;;;14.80;75.70;;;;;;9170821;19;20022;-72
2023/10/15 12:28:49;;;;;;;5.85;1.83;;;14.70;75.60;;;;;;9169936;19;20015;-74
2023/10/15 12:31:59;;;;;;;5.28;0.70;;;14.70;75.60;;;;;;9173098;19;20341;-75
2023/10/15 12:35:11;;;;;;;3.67;1.40;;;14.60;75.50;;;;;;9173484;19;20077;-72
2023/10/15 12:38:26;;;;;;;1.75;1.00;;;14.50;75.50;;;;;;9172895;19;20425;-72
2023/10/15 12:41:34;;;;;;;10.43;1.70;;;14.40;75.50;;;;;;9168565;19;20018;-70
2023/10/15 12:44:44;;;;;;;3.85;0.80;;;14.20;75.40;;;;;;9166535;19;20018;-69
2023/10/15 12:47:52;;;;;;;1.23;0.68;;;14.00;75.50;;;;;;9167300;19;20287;-71
2023/10/15 12:51:00;;;;;;;3.45;0.50;;;13.70;75.30;;;;;;9167915;19;20761;-72
2023/10/15 12:54:06;;;;;;;0.50;0.30;;;13.60;75.50;;;;;;9165841;19;20468;-72
2023/10/15 12:57:14;;;;;;;5.05;0.40;;;13.40;75.50;;;;;;9169560;19;20021;-73
2023/10/15 13:00:21;;;;;;;5.82;0.63;;;13.20;75.70;;;;;;9172150;19;20022;-72
2023/10/15 13:03:32;;;;;;;6.68;1.75;;;13.10;75.90;;;;;;9168988;19;20006;-72
2023/10/15 13:06:38;;;;;;;2.05;0.47;;;13.00;76.00;;;;;;9169123;19;20109;-72
2023/10/15 13:09:45;;;;;;;3.08;0.70;;;12.90;76.20;;;;;;9166788;19;20022;-72
2023/10/15 13:12:52;;;;;;;3.25;1.17;;;12.80;76.30;;;;;;9165440;19;20018;-73
2023/10/15 13:16:01;;;;;;;1.88;0.60;;;12.70;76.40;;;;;;9167720;19;20022;-72
2023/10/15 13:19:09;;;;;;;2.72;1.70;;;12.60;76.40;;;;;;9168619;19;20086;-72
2023/10/15 13:22:17;;;;;;;2.47;0.55;;;12.50;76.40;;;;;;9169829;19;20485;-72
2023/10/15 13:25:22;;;;;;;6.13;0.75;;;12.50;76.50;;;;;;9169542;19;20025;-74
2023/10/15 13:28:29;;;;;;;3.38;0.80;;;12.40;76.60;;;;;;9165664;19;20015;-72
2023/10/15 13:31:35;;;;;;;4.90;0.60;;;12.30;76.70;;;;;;9171123;19;20025;-72
2023/10/15 13:34:45;;;;;;;2.55;0.70;;;12.20;76.80;;;;;;9166371;19;20018;-73
2023/10/15 13:37:51;;;;;;;5.75;0.80;;;12.20;76.90;;;;;;9166681;19;20021;-74
2023/10/15 13:40:58;;;;;;;3.53;0.63;;;12.20;77.00;;;;;;9169676;19;20018;-73
2023/10/15 13:44:04;;;;;;;4.60;0.60;;;12.10;77.00;;;;;;9164894;19;20040;-72
2023/10/15 13:47:13;;;;;;;5.68;0.98;;;12.00;77.10;;;;;;9166930;19;20021;-75
2023/10/15 13:50:21;;;;;;;6.65;1.20;;;12.00;77.20;;;;;;9165727;19;20472;-74
2023/10/15 13:53:30;;;;;;;5.70;0.65;;;11.90;77.20;;;;;;9163728;19;20428;-72
2023/10/15 13:56:35;;;;;;;4.32;0.95;;;11.90;77.30;;;;;;9166330;19;20023;-73
2023/10/15 13:59:44;;;;;;;3.00;0.60;;;11.90;77.40;;;;;;9167980;19;20499;-74
2023/10/15 14:02:52;;;;;;;3.33;1.10;;;11.80;77.40;;;;;;9168754;19;20472;-74
2023/10/15 14:06:05;;;;;;;6.10;1.38;;;11.80;77.50;;;;;;9168399;19;20024;-73
2023/10/15 14:09:14;;;;;;;8.45;0.90;;;11.80;77.60;;;;;;9167503;19;20349;-74
2023/10/15 14:12:21;;;;;;;7.90;1.15;;;11.80;77.70;;;;;;9167592;19;20014;-73
2023/10/15 14:15:28;;;;;;;3.92;0.80;;;11.80;77.70;;;;;;9167990;19;20022;-72
2023/10/15 14:18:36;;;;;;;3.53;1.00;;;11.70;77.70;;;;;;9165988;19;20014;-73
2023/10/15 14:21:44;;;;;;;2.65;0.73;;;11.70;77.80;;;;;;9166257;19;20040;-73
2023/10/15 14:24:53;;;;;;;4.70;0.85;;;11.70;77.80;;;;;;9168389;19;20496;-74
2023/10/15 14:27:58;;;;;;;4.70;0.95;;;11.70;77.80;;;;;;9169753;19;20018;-73
2023/10/15 14:31:06;;;;;;;2.97;0.77;;;11.70;77.80;;;;;;9168254;19;20010;-73
2023/10/15 14:34:12;;;;;;;3.03;0.82;;;11.70;77.90;;;;;;9166861;19;20045;-73
2023/10/15 14:37:22;;;;;;;6.15;0.75;;;11.70;78.00;;;;;;9168185;19;20011;-73
2023/10/15 14:40:28;;;;;;;1.67;0.73;;;11.60;77.90;;;;;;9165315;19;20018;-73
2023/10/15 14:43:36;;;;;;;3.35;0.57;;;11.70;78.10;;;;;;9168185;19;20029;-73
2023/10/15 14:46:42;;;;;;;4.40;1.00;;;11.60;78.10;;;;;;9168124;19;20572;-76
2023/10/15 14:49:50;;;;;;;5.75;1.30;;;11.70;78.20;;;;;;9165475;19;20015;-73
2023/10/15 14:52:59;;;;;;;5.10;1.80;;;11.60;78.10;;;;;;9164556;19;20015;-72
2023/10/15 14:56:08;;;;;;;3.95;1.55;;;11.60;78.10;;;;;;9163239;19;20011;-72
2023/10/15 14:59:13;;;;;;;4.68;1.10;;;11.60;78.10;;;;;;9161318;19;20356;-73
2023/10/15 15:02:21;;;;;;;5.53;1.00;;;11.60;78.10;;;;;;9164156;19;20022;-73
2023/10/15 15:05:26;;;;;;;3.25;1.17;;;11.60;78.10;;;;;;9164711;19;20019;-72
2023/10/15 15:08:36;;;;;;;5.80;0.80;;;11.60;78.20;;;;;;9169167;19;20014;-72
2023/10/15 15:11:43;;;;;;;2.90;0.88;;;11.60;78.10;;;;;;9176539;19;20018;-72
2023/10/15 15:14:51;;;;;;;5.57;0.70;;;11.60;78.10;;;;;;9173197;19;20014;-73
2023/10/15 15:17:56;;;;;;;9.02;1.10;;;11.60;78.00;;;;;;9173410;19;20636;-74
2023/10/15 15:21:05;;;;;;;2.30;0.68;;;11.60;78.00;;;;;;9173525;19;20852;-72
2023/10/15 15:24:17;;;;;;;4.13;0.98;;;11.60;78.10;;;;;;9177009;19;20019;-73
2023/10/15 15:27:24;;;;;;;7.20;0.85;;;11.50;78.00;;;;;;9173554;19;20810;-74
2023/10/15 15:30:30;;;;;;;3.47;1.10;;;11.50;78.00;;;;;;9172368;19;20014;-73
2023/10/15 15:33:37;;;;;;;8.82;1.70;;;11.50;77.90;;;;;;9175047;19;20014;-73
2023/10/15 15:36:43;;;;;;;6.45;1.10;;;11.50;77.90;;;;;;9172162;19;20140;-74
2023/10/15 15:39:53;;;;;;;1.88;0.80;;;11.40;77.90;;;;;;9177768;19;20029;-73
2023/10/15 15:42:58;;;;;;;3.25;0.60;;;11.40;78.00;;;;;;9173104;19;20019;-74
2023/10/15 15:46:11;;;;;;;11.55;1.92;;;11.40;77.90;;;;;;9173994;19;20019;-75
2023/10/15 15:49:17;;;;;;;4.93;0.93;;;11.30;78.00;;;;;;9169465;19;20022;-73
2023/10/15 15:52:25;;;;;;;4.07;1.10;;;11.30;77.90;;;;;;9167423;19;20014;-73
2023/10/15 15:55:33;;;;;;;2.45;0.70;;;11.30;78.00;;;;;;9160928;19;20053;-73
2023/10/15 15:58:40;;;;;;;1.13;0.65;;;11.30;77.90;;;;;;9165294;19;20823;-73
2023/10/15 16:01:46;;;;;;;6.10;2.60;;;11.30;78.00;;;;;;9167112;19;20036;-74
2023/10/15 16:04:53;;;;;;;7.82;1.10;;;11.20;78.10;;;;;;9171864;19;20021;-75
2023/10/15 16:08:01;;;;;;;1.27;0.65;;;11.20;78.10;;;;;;9169236;19;20048;-72
2023/10/15 16:11:13;;;;;;;3.67;1.00;;;11.20;78.10;;;;;;9165089;19;20637;-72
2023/10/15 16:14:18;;;;;;;3.70;1.13;;;11.10;78.10;;;;;;9164431;19;20023;-71
2023/10/15 16:17:26;;;;;;;4.40;1.50;;;11.10;78.20;;;;;;9166007;19;20112;-73
2023/10/15 16:20:33;;;;;;;1.73;1.00;;;11.10;78.20;;;;;;9160408;19;20018;-72
2023/10/15 16:23:41;;;;;;;2.22;1.00;;;11.00;78.20;;;;;;9164691;19;20021;-72
2023/10/15 16:26:49;;;;;;;6.03;1.73;;;11.00;78.30;;;;;;9165759;19;20015;-71
2023/10/15 16:29:57;;;;;;;3.22;1.20;;;11.00;78.40;;;;;;9159829;19;20038;-73
2023/10/15 16:33:03;;;;;;;7.65;1.17;;;11.00;78.40;;;;;;9167236;19;20048;-70
2023/10/15 16:36:11;;;;;;;7.00;2.00;;;10.90;78.40;;;;;;9163669;19;20018;-70
2023/10/15 16:39:17;;;;;;;3.97;0.98;;;10.90;78.50;;;;;;9169018;19;20015;-70